Terminal Aerodrome Forecast
Issued by NWS Kansas City/Pleasant Hill, MO

Home | Current Version | Previous Version | Text Only | Print | Product List | Glossary On
Versions: 1 2 3 4 5 6 7 8 9 10 11 12 13 14 15 16 17 18 19
000
FTUS43 KEAX 221120
TAFMCI
TAF
KMCI 221120Z 2212/2312 07011KT P6SM OVC100
     FM221600 10012KT P6SM BKN120
     FM230500 13012KT P6SM BKN030
     FM230600 13012KT P6SM VCSH BKN025
     FM230900 14012KT P6SM VCSH OVC015=

USA.gov is the U.S. government's official web portal to all federal, state and local government web resources and services.